createdAt,value
2017-08-17T00:00:14.819Z,0
2017-08-17T00:00:55.349Z,0
2017-08-17T00:01:35.893Z,0
2017-08-17T00:02:16.440Z,0
2017-08-17T00:02:56.972Z,0
2017-08-17T00:03:37.509Z,0
2017-08-17T00:04:18.041Z,0
2017-08-17T00:04:58.573Z,0
2017-08-17T00:05:39.118Z,0
2017-08-17T00:06:19.653Z,0
2017-08-17T00:07:00.198Z,0
2017-08-17T00:07:40.734Z,0
2017-08-17T00:08:21.277Z,0
2017-08-17T00:09:01.817Z,0
2017-08-17T00:09:42.353Z,0
2017-08-17T00:10:22.899Z,0
2017-08-17T00:11:03.434Z,0
2017-08-17T00:11:43.962Z,0
2017-08-17T00:12:24.504Z,0
2017-08-17T00:13:05.045Z,0
2017-08-17T00:13:45.580Z,0
2017-08-17T00:14:26.121Z,0
2017-08-17T00:15:06.658Z,0
2017-08-17T00:15:47.198Z,0
2017-08-17T00:16:27.732Z,0
2017-08-17T00:17:08.268Z,0
2017-08-17T00:17:48.806Z,0
2017-08-17T00:18:29.341Z,0
2017-08-17T00:19:09.877Z,0
2017-08-17T00:19:50.425Z,0
2017-08-17T00:20:30.961Z,0
2017-08-17T00:21:11.505Z,0
2017-08-17T00:21:52.023Z,0
2017-08-17T00:22:32.564Z,0
2017-08-17T00:23:13.099Z,0
2017-08-17T00:23:53.641Z,0
2017-08-17T00:24:34.178Z,0
2017-08-17T00:25:14.721Z,0
2017-08-17T00:25:55.267Z,0
2017-08-17T00:26:35.794Z,0
2017-08-17T00:27:16.329Z,0
2017-08-17T00:27:56.865Z,0
2017-08-17T00:28:37.404Z,0
2017-08-17T00:29:17.946Z,0
2017-08-17T00:29:58.482Z,0
2017-08-17T00:30:39.014Z,0
2017-08-17T00:31:19.554Z,0
2017-08-17T00:32:00.091Z,0
2017-08-17T00:32:40.632Z,0
2017-08-17T00:33:21.170Z,0
2017-08-17T00:34:01.709Z,0
2017-08-17T00:34:42.252Z,0
2017-08-17T00:35:22.788Z,0
2017-08-17T00:36:03.329Z,0
2017-08-17T00:36:43.861Z,0
2017-08-17T00:37:24.396Z,0
2017-08-17T00:38:04.938Z,0
2017-08-17T00:38:45.475Z,0
2017-08-17T00:39:26.017Z,0
2017-08-17T00:40:06.554Z,0
2017-08-17T00:40:47.094Z,0
2017-08-17T00:41:27.640Z,0
2017-08-17T00:42:08.180Z,0
2017-08-17T00:42:48.714Z,0
2017-08-17T00:43:29.252Z,0
2017-08-17T00:44:09.792Z,0
2017-08-17T00:44:50.330Z,0
2017-08-17T00:45:30.872Z,0
2017-08-17T00:46:11.410Z,0
2017-08-17T00:46:51.949Z,0
2017-08-17T00:47:32.488Z,0
2017-08-17T00:48:13.030Z,0
2017-08-17T00:48:53.566Z,0
2017-08-17T00:49:34.121Z,0
2017-08-17T00:50:14.660Z,0
2017-08-17T00:50:55.199Z,0
2017-08-17T00:51:35.741Z,0
2017-08-17T00:52:16.280Z,0
2017-08-17T00:52:56.817Z,0
2017-08-17T00:53:37.339Z,0
2017-08-17T00:54:17.873Z,0
2017-08-17T00:54:58.405Z,0
2017-08-17T00:55:38.941Z,0
2017-08-17T00:56:19.484Z,0
2017-08-17T00:57:00.019Z,0
2017-08-17T00:57:40.560Z,0
2017-08-17T00:58:21.099Z,0
2017-08-17T00:59:01.640Z,0
2017-08-17T00:59:42.178Z,0
2017-08-17T01:00:22.718Z,0
2017-08-17T01:01:03.254Z,0
2017-08-17T01:01:43.854Z,0
2017-08-17T01:02:24.379Z,0
2017-08-17T01:03:04.911Z,0
2017-08-17T01:03:45.448Z,0
2017-08-17T01:04:25.990Z,0
2017-08-17T01:05:06.527Z,0
2017-08-17T01:05:47.068Z,0
2017-08-17T01:06:27.613Z,0
2017-08-17T01:07:08.146Z,0
2017-08-17T01:07:48.678Z,0
2017-08-17T01:08:29.216Z,0
2017-08-17T01:09:09.754Z,0
2017-08-17T01:09:50.407Z,0
2017-08-17T01:10:30.947Z,0
2017-08-17T01:11:11.488Z,0
2017-08-17T01:11:52.026Z,0
2017-08-17T01:12:32.567Z,0
2017-08-17T01:13:13.099Z,0
2017-08-17T01:13:53.635Z,0
2017-08-17T01:14:34.174Z,0
2017-08-17T01:15:14.710Z,0
2017-08-17T01:15:55.247Z,0
2017-08-17T01:16:35.788Z,0
2017-08-17T01:17:16.329Z,0
2017-08-17T01:17:56.868Z,0
2017-08-17T01:18:37.401Z,0
2017-08-17T01:19:17.937Z,0
2017-08-17T01:19:58.492Z,0
2017-08-17T01:20:39.031Z,0
2017-08-17T01:21:19.569Z,0
2017-08-17T01:22:00.115Z,0
2017-08-17T01:22:40.661Z,0
2017-08-17T01:23:21.196Z,0
2017-08-17T01:24:01.735Z,0
2017-08-17T01:24:42.266Z,0
2017-08-17T01:25:22.803Z,0
2017-08-17T01:26:03.335Z,0
2017-08-17T01:26:43.871Z,0
2017-08-17T01:27:24.411Z,0
2017-08-17T01:28:04.943Z,0
2017-08-17T01:28:45.489Z,0
2017-08-17T01:29:26.021Z,0
2017-08-17T01:30:06.573Z,0
2017-08-17T01:30:47.114Z,0
2017-08-17T01:31:27.650Z,0
2017-08-17T01:32:08.190Z,0
2017-08-17T01:32:48.729Z,0
2017-08-17T01:33:29.266Z,0
2017-08-17T01:34:09.789Z,0
2017-08-17T01:34:50.327Z,0
2017-08-17T01:35:30.869Z,0
2017-08-17T01:36:11.403Z,0
2017-08-17T01:36:51.933Z,0
2017-08-17T01:37:32.473Z,0
2017-08-17T01:38:13.003Z,0
2017-08-17T01:38:53.543Z,0
2017-08-17T01:39:34.091Z,0
2017-08-17T01:40:14.621Z,0
2017-08-17T01:40:55.157Z,0
2017-08-17T01:41:35.691Z,0
2017-08-17T01:42:16.229Z,0
2017-08-17T01:42:56.768Z,0
2017-08-17T01:43:37.303Z,0
2017-08-17T01:44:17.843Z,0
2017-08-17T01:44:58.382Z,0
2017-08-17T01:45:38.928Z,0
2017-08-17T01:46:19.465Z,0
2017-08-17T01:47:00.001Z,0
2017-08-17T01:47:40.542Z,0
2017-08-17T01:48:21.077Z,0
2017-08-17T01:49:01.620Z,0
2017-08-17T01:49:42.158Z,0
2017-08-17T01:50:22.696Z,0
2017-08-17T01:51:03.232Z,0
2017-08-17T01:51:43.769Z,0
2017-08-17T01:52:24.303Z,0
2017-08-17T01:53:04.840Z,0
2017-08-17T01:53:45.381Z,0
2017-08-17T01:54:25.923Z,0
2017-08-17T01:55:06.461Z,0
2017-08-17T01:55:47.000Z,0
2017-08-17T01:56:27.536Z,0
2017-08-17T01:57:08.068Z,0
2017-08-17T01:57:48.615Z,0
2017-08-17T01:58:29.150Z,0
2017-08-17T01:59:09.690Z,0
2017-08-17T01:59:50.229Z,0
2017-08-17T02:00:30.768Z,0
2017-08-17T02:01:11.312Z,0
2017-08-17T02:01:51.849Z,0
2017-08-17T02:02:32.386Z,0
2017-08-17T02:03:12.929Z,0
2017-08-17T02:03:53.461Z,0
2017-08-17T02:04:33.999Z,0
2017-08-17T02:05:14.537Z,0
2017-08-17T02:05:55.074Z,0
2017-08-17T02:06:35.613Z,0
2017-08-17T02:07:16.142Z,0
2017-08-17T02:07:56.676Z,0
2017-08-17T02:08:37.214Z,0
2017-08-17T02:09:17.756Z,0
2017-08-17T02:09:58.287Z,0
2017-08-17T02:10:38.827Z,0
2017-08-17T02:11:19.367Z,0
2017-08-17T02:11:59.908Z,0
2017-08-17T02:12:40.448Z,0
2017-08-17T02:13:20.970Z,0
2017-08-17T02:14:01.495Z,0
2017-08-17T02:14:42.030Z,0
2017-08-17T02:15:22.562Z,0
2017-08-17T02:16:03.133Z,0
2017-08-17T02:16:43.671Z,0
2017-08-17T02:17:24.205Z,0
2017-08-17T02:18:04.744Z,0
2017-08-17T02:18:45.280Z,0
2017-08-17T02:19:25.814Z,0
2017-08-17T02:20:06.358Z,0
2017-08-17T02:20:46.897Z,0
2017-08-17T02:21:27.430Z,0
2017-08-17T02:22:07.969Z,0
2017-08-17T02:22:48.508Z,0
2017-08-17T02:23:29.050Z,0
2017-08-17T02:24:09.585Z,0
2017-08-17T02:24:50.124Z,0
2017-08-17T02:25:30.666Z,0
2017-08-17T02:26:11.206Z,0
2017-08-17T02:26:51.740Z,0
2017-08-17T02:27:32.276Z,0
2017-08-17T02:28:12.815Z,0
2017-08-17T02:28:53.352Z,0
2017-08-17T02:29:33.893Z,0
2017-08-17T02:30:14.430Z,0
2017-08-17T02:30:54.963Z,0
2017-08-17T02:31:35.495Z,0
2017-08-17T02:32:16.035Z,0
2017-08-17T02:32:56.570Z,0
2017-08-17T02:33:37.106Z,0
2017-08-17T02:34:17.644Z,0
2017-08-17T02:34:58.183Z,0
2017-08-17T02:35:38.752Z,0
2017-08-17T02:36:19.289Z,0
2017-08-17T02:36:59.827Z,0
2017-08-17T02:37:40.365Z,0
2017-08-17T02:38:20.903Z,0
2017-08-17T02:39:01.441Z,0
2017-08-17T02:39:41.984Z,0
2017-08-17T02:40:22.523Z,0
2017-08-17T02:41:03.062Z,0
2017-08-17T02:41:43.600Z,0
2017-08-17T02:42:24.140Z,0
2017-08-17T02:43:04.685Z,0
2017-08-17T02:43:45.221Z,0
2017-08-17T02:44:25.760Z,0
2017-08-17T02:45:06.297Z,0
2017-08-17T02:45:46.828Z,0
2017-08-17T02:46:27.367Z,0
2017-08-17T02:47:07.903Z,0
2017-08-17T02:47:48.444Z,0
2017-08-17T02:48:28.979Z,0
2017-08-17T02:49:09.517Z,0
2017-08-17T02:49:50.054Z,0
2017-08-17T02:50:30.594Z,0
2017-08-17T02:51:11.132Z,0
2017-08-17T02:51:51.670Z,0
2017-08-17T02:52:32.204Z,0
2017-08-17T02:53:12.749Z,0
2017-08-17T02:53:53.283Z,0
2017-08-17T02:54:33.822Z,0
2017-08-17T02:55:14.361Z,0
2017-08-17T02:55:54.932Z,0
2017-08-17T02:56:35.469Z,0
2017-08-17T02:57:16.011Z,0
2017-08-17T02:57:56.547Z,0
2017-08-17T02:58:37.082Z,0
2017-08-17T02:59:17.622Z,0
2017-08-17T02:59:58.156Z,0
2017-08-17T03:00:38.689Z,0
2017-08-17T03:01:19.247Z,0
2017-08-17T03:01:59.770Z,0
2017-08-17T03:02:40.306Z,0
2017-08-17T03:03:20.845Z,0
2017-08-17T03:04:01.381Z,0
2017-08-17T03:04:41.918Z,0
2017-08-17T03:05:22.458Z,0
2017-08-17T03:06:02.990Z,0
2017-08-17T03:06:43.527Z,0
2017-08-17T03:07:24.063Z,0
2017-08-17T03:08:04.606Z,0
2017-08-17T03:08:45.144Z,0
2017-08-17T03:09:25.678Z,0
2017-08-17T03:10:06.257Z,0
2017-08-17T03:10:46.789Z,0
2017-08-17T03:11:27.338Z,0
2017-08-17T03:12:07.876Z,0
2017-08-17T03:12:48.412Z,0
2017-08-17T03:13:28.947Z,0
2017-08-17T03:14:09.520Z,0
2017-08-17T03:14:50.055Z,0
2017-08-17T03:15:30.592Z,0
2017-08-17T03:16:11.129Z,0
2017-08-17T03:16:51.667Z,0
2017-08-17T03:17:32.205Z,0
2017-08-17T03:18:12.745Z,0
2017-08-17T03:18:53.287Z,0
2017-08-17T03:19:33.825Z,0
2017-08-17T03:20:14.365Z,0
2017-08-17T03:20:54.897Z,0
2017-08-17T03:21:35.437Z,0
2017-08-17T03:22:15.962Z,0
2017-08-17T03:22:56.495Z,0
2017-08-17T03:23:37.052Z,0
2017-08-17T03:24:17.589Z,0
2017-08-17T03:24:58.132Z,0
2017-08-17T03:25:38.672Z,0
2017-08-17T03:26:19.210Z,0
2017-08-17T03:26:59.748Z,0
2017-08-17T03:27:40.285Z,0
2017-08-17T03:28:20.822Z,0
2017-08-17T03:29:01.357Z,0
2017-08-17T03:29:41.892Z,0
2017-08-17T03:30:22.437Z,0
2017-08-17T03:31:04.273Z,0
2017-08-17T03:31:47.599Z,0
2017-08-17T03:32:31.367Z,0
2017-08-17T03:33:15.447Z,0
2017-08-17T03:33:58.405Z,0
2017-08-17T03:34:41.502Z,0
2017-08-17T03:35:25.608Z,0
2017-08-17T03:36:08.977Z,0
2017-08-17T03:36:51.933Z,0
2017-08-17T03:37:34.873Z,0
2017-08-17T03:38:17.759Z,0
2017-08-17T03:38:58.964Z,0
2017-08-17T03:39:39.942Z,0
2017-08-17T03:40:20.961Z,0
2017-08-17T03:41:01.950Z,0
2017-08-17T03:41:44.160Z,0
2017-08-17T03:42:25.804Z,0
2017-08-17T03:43:07.243Z,0
2017-08-17T03:43:48.407Z,0
2017-08-17T03:44:28.942Z,0
2017-08-17T03:45:09.494Z,0
2017-08-17T03:45:50.026Z,0
2017-08-17T03:46:31.293Z,0
2017-08-17T03:47:11.829Z,0
2017-08-17T03:47:52.361Z,0
2017-08-17T03:48:32.899Z,0
2017-08-17T03:49:13.427Z,0
2017-08-17T03:49:53.972Z,0
2017-08-17T03:50:34.510Z,0
2017-08-17T03:51:15.043Z,0
2017-08-17T03:51:55.586Z,0
2017-08-17T03:52:38.403Z,0
2017-08-17T03:53:20.000Z,0
2017-08-17T03:54:00.539Z,0
2017-08-17T03:54:41.077Z,0
2017-08-17T03:55:21.612Z,4
2017-08-17T03:56:02.148Z,4
2017-08-17T03:56:42.692Z,4
2017-08-17T03:57:23.229Z,0
2017-08-17T03:58:03.768Z,4
2017-08-17T03:58:44.310Z,4
2017-08-17T03:59:24.846Z,4
2017-08-17T04:00:05.381Z,4
2017-08-17T04:00:45.919Z,4
2017-08-17T04:01:26.457Z,8
2017-08-17T04:02:06.999Z,4
2017-08-17T04:02:47.533Z,8
2017-08-17T04:03:28.083Z,8
2017-08-17T04:04:08.615Z,8
2017-08-17T04:04:49.153Z,12
2017-08-17T04:05:29.688Z,8
2017-08-17T04:06:10.226Z,12
2017-08-17T04:06:50.762Z,12
2017-08-17T04:07:31.302Z,12
2017-08-17T04:08:11.838Z,16
2017-08-17T04:08:52.370Z,16
2017-08-17T04:09:32.905Z,16
2017-08-17T04:10:13.443Z,20
2017-08-17T04:10:53.977Z,24
2017-08-17T04:11:34.514Z,24
2017-08-17T04:12:15.061Z,28
2017-08-17T04:12:55.599Z,24
2017-08-17T04:13:36.135Z,28
2017-08-17T04:14:16.675Z,32
2017-08-17T04:14:57.212Z,36
2017-08-17T04:15:40.433Z,36
2017-08-17T04:16:21.536Z,40
2017-08-17T04:17:02.122Z,44
2017-08-17T04:17:42.660Z,48
2017-08-17T04:18:23.200Z,52
2017-08-17T04:19:03.743Z,56
2017-08-17T04:19:44.344Z,60
2017-08-17T04:20:24.924Z,60
2017-08-17T04:21:05.460Z,68
2017-08-17T04:21:45.998Z,72
2017-08-17T04:22:26.544Z,76
2017-08-17T04:23:07.133Z,80
2017-08-17T04:23:47.673Z,84
2017-08-17T04:24:28.217Z,88
2017-08-17T04:25:08.762Z,96
2017-08-17T04:25:49.299Z,100
2017-08-17T04:26:29.839Z,104
2017-08-17T04:27:10.383Z,108
2017-08-17T04:27:50.915Z,116
2017-08-17T04:28:31.453Z,120
2017-08-17T04:29:11.992Z,128
2017-08-17T04:29:52.523Z,140
2017-08-17T04:30:33.070Z,144
2017-08-17T04:31:13.600Z,156
2017-08-17T04:31:54.130Z,160
2017-08-17T04:32:34.665Z,164
2017-08-17T04:33:15.208Z,176
2017-08-17T04:33:55.749Z,184
2017-08-17T04:35:54.895Z,236
2017-08-17T04:36:35.427Z,256
2017-08-17T04:37:15.959Z,272
2017-08-17T04:37:56.503Z,280
2017-08-17T04:38:37.046Z,276
2017-08-17T04:39:17.579Z,268
2017-08-17T04:39:58.109Z,272
2017-08-17T04:40:38.659Z,276
2017-08-17T04:41:19.181Z,280
2017-08-17T04:41:59.715Z,292
2017-08-17T04:42:40.256Z,292
2017-08-17T04:43:20.797Z,292
2017-08-17T04:44:01.335Z,300
2017-08-17T04:44:41.874Z,316
2017-08-17T04:45:22.406Z,328
2017-08-17T04:46:02.937Z,348
2017-08-17T04:46:43.468Z,384
2017-08-17T04:47:24.002Z,388
2017-08-17T04:48:04.526Z,384
2017-08-17T04:48:45.056Z,400
2017-08-17T04:49:25.596Z,416
2017-08-17T04:50:06.129Z,432
2017-08-17T04:50:46.662Z,448
2017-08-17T04:51:27.197Z,480
2017-08-17T04:52:07.735Z,520
2017-08-17T04:52:48.263Z,528
2017-08-17T04:53:28.800Z,532
2017-08-17T04:54:09.330Z,524
2017-08-17T04:54:51.811Z,548
2017-08-17T04:55:32.510Z,596
2017-08-17T04:56:13.045Z,616
2017-08-17T04:56:53.579Z,616
2017-08-17T04:57:34.117Z,628
2017-08-17T04:58:14.654Z,672
2017-08-17T04:58:55.195Z,704
2017-08-17T04:59:35.734Z,752
2017-08-17T05:00:16.301Z,696
2017-08-17T05:00:56.838Z,744
2017-08-17T05:01:37.370Z,740
2017-08-17T05:02:17.906Z,788
2017-08-17T05:02:58.441Z,876
2017-08-17T05:03:38.987Z,872
2017-08-17T05:04:19.524Z,884
2017-08-17T05:05:00.066Z,936
2017-08-17T05:05:40.602Z,960
2017-08-17T05:06:21.162Z,1012
2017-08-17T05:07:01.692Z,1036
2017-08-17T05:07:42.226Z,1032
2017-08-17T05:08:22.766Z,1088
2017-08-17T05:09:03.310Z,1148
2017-08-17T05:09:43.840Z,1140
2017-08-17T05:10:24.380Z,1156
2017-08-17T05:11:04.916Z,1180
2017-08-17T05:11:45.449Z,1216
2017-08-17T05:12:25.990Z,1244
2017-08-17T05:13:06.525Z,1272
2017-08-17T05:13:47.057Z,1324
2017-08-17T05:14:27.627Z,1372
2017-08-17T05:15:08.157Z,1400
2017-08-17T05:15:48.696Z,1452
2017-08-17T05:16:29.239Z,1472
2017-08-17T05:17:09.772Z,1524
2017-08-17T05:17:50.315Z,1552
2017-08-17T05:18:30.853Z,1608
2017-08-17T05:19:11.384Z,1664
2017-08-17T05:19:51.921Z,1804
2017-08-17T05:20:32.453Z,1776
2017-08-17T05:21:12.989Z,1824
2017-08-17T05:21:53.529Z,1832
2017-08-17T05:22:34.070Z,1872
2017-08-17T05:23:14.607Z,1960
2017-08-17T05:23:55.149Z,1936
2017-08-17T05:24:35.681Z,1940
2017-08-17T05:25:16.216Z,2032
2017-08-17T05:25:56.748Z,2072
2017-08-17T05:26:37.286Z,2056
2017-08-17T05:27:17.820Z,2020
2017-08-17T05:27:58.357Z,2060
2017-08-17T05:28:38.892Z,2068
2017-08-17T05:29:19.432Z,2020
2017-08-17T05:29:59.968Z,2168
2017-08-17T05:30:40.505Z,2072
2017-08-17T05:31:21.060Z,1884
2017-08-17T05:32:01.599Z,1860
2017-08-17T05:32:42.139Z,1872
2017-08-17T05:33:22.676Z,1844
2017-08-17T05:34:03.200Z,1848
2017-08-17T05:34:43.730Z,2060
2017-08-17T05:35:24.265Z,1916
2017-08-17T05:36:04.803Z,2196
2017-08-17T05:36:45.339Z,2144
2017-08-17T05:37:25.880Z,2404
2017-08-17T05:38:06.422Z,2288
2017-08-17T05:38:46.964Z,2344
2017-08-17T05:39:27.505Z,2368
2017-08-17T05:40:08.037Z,2396
2017-08-17T05:40:48.571Z,2584
2017-08-17T05:41:29.106Z,2404
2017-08-17T05:42:09.645Z,2288
2017-08-17T05:42:50.185Z,2572
2017-08-17T05:43:30.722Z,2476
2017-08-17T05:44:11.254Z,2368
2017-08-17T05:44:51.793Z,2276
2017-08-17T05:45:32.328Z,2124
2017-08-17T05:46:12.864Z,2008
2017-08-17T05:46:53.400Z,1924
2017-08-17T05:47:33.937Z,1868
2017-08-17T05:48:14.479Z,1780
2017-08-17T05:48:55.015Z,1756
2017-08-17T05:49:35.549Z,1700
2017-08-17T05:50:16.089Z,1640
2017-08-17T05:50:56.628Z,1520
2017-08-17T05:51:37.168Z,1484
2017-08-17T05:52:17.708Z,1452
2017-08-17T05:52:58.244Z,1368
2017-08-17T05:53:38.785Z,1316
2017-08-17T05:54:19.315Z,1252
2017-08-17T05:54:59.854Z,1248
2017-08-17T05:55:40.390Z,1268
2017-08-17T05:56:20.927Z,1284
2017-08-17T05:57:01.470Z,1300
2017-08-17T05:57:42.005Z,1332
2017-08-17T05:58:22.537Z,1384
2017-08-17T05:59:03.074Z,1468
2017-08-17T05:59:43.609Z,1596
2017-08-17T06:00:24.158Z,1760
2017-08-17T06:01:04.683Z,1948
2017-08-17T06:01:45.225Z,2012
2017-08-17T06:02:25.760Z,2088
2017-08-17T06:03:06.304Z,2172
2017-08-17T06:03:46.841Z,2228
2017-08-17T06:04:27.377Z,2268
2017-08-17T06:05:07.928Z,2284
2017-08-17T06:05:48.456Z,2332
2017-08-17T06:06:28.991Z,2360
2017-08-17T06:07:09.529Z,2412
2017-08-17T06:07:50.059Z,2452
2017-08-17T06:08:30.596Z,2528
2017-08-17T06:09:11.136Z,2600
2017-08-17T06:09:51.679Z,2660
2017-08-17T06:10:32.264Z,2760
2017-08-17T06:11:12.801Z,2868
2017-08-17T06:11:53.350Z,2940
2017-08-17T06:12:33.893Z,3036
2017-08-17T06:13:14.421Z,3112
2017-08-17T06:13:54.958Z,3168
2017-08-17T06:14:35.495Z,3208
2017-08-17T06:15:16.040Z,3232
2017-08-17T06:15:56.564Z,3272
2017-08-17T06:16:37.097Z,3312
2017-08-17T06:17:17.704Z,3332
2017-08-17T06:17:58.243Z,3376
2017-08-17T06:18:38.792Z,3412
2017-08-17T06:19:19.330Z,3436
2017-08-17T06:19:59.873Z,3512
2017-08-17T06:20:40.408Z,3592
2017-08-17T06:21:20.948Z,3672
2017-08-17T06:22:01.484Z,3728
2017-08-17T06:22:42.021Z,3676
2017-08-17T06:23:22.559Z,3692
2017-08-17T06:24:03.098Z,3752
2017-08-17T06:24:43.628Z,3796
2017-08-17T06:25:24.164Z,3816
2017-08-17T06:26:04.699Z,3796
2017-08-17T06:26:45.235Z,3808
2017-08-17T06:27:25.771Z,3828
2017-08-17T06:28:06.306Z,3856
2017-08-17T06:28:46.841Z,3872
2017-08-17T06:29:27.390Z,3916
2017-08-17T06:30:07.927Z,3940
2017-08-17T06:30:48.473Z,4032
2017-08-17T06:31:29.019Z,4172
2017-08-17T06:32:09.558Z,4276
2017-08-17T06:32:50.090Z,4372
2017-08-17T06:33:30.627Z,4436
2017-08-17T06:34:11.166Z,4504
2017-08-17T06:34:51.707Z,4488
2017-08-17T06:35:32.245Z,4480
2017-08-17T06:36:12.787Z,4456
2017-08-17T06:36:53.321Z,4436
2017-08-17T06:37:33.836Z,4396
2017-08-17T06:38:14.397Z,4336
2017-08-17T06:38:54.933Z,4272
2017-08-17T06:39:35.472Z,4268
2017-08-17T06:40:16.015Z,4288
2017-08-17T06:40:56.554Z,4300
2017-08-17T06:41:37.091Z,4320
2017-08-17T06:42:17.628Z,4344
2017-08-17T06:42:58.170Z,4312
2017-08-17T06:43:38.700Z,4280
2017-08-17T06:44:19.239Z,4284
2017-08-17T06:44:59.776Z,4296
2017-08-17T06:45:40.317Z,4268
2017-08-17T06:46:20.867Z,4268
2017-08-17T06:47:01.404Z,4300
2017-08-17T06:47:41.988Z,4388
2017-08-17T06:48:22.513Z,4468
2017-08-17T06:49:03.042Z,4556
2017-08-17T06:49:43.571Z,4588
2017-08-17T06:50:24.268Z,4612
2017-08-17T06:52:38.704Z,4816
2017-08-17T06:53:19.232Z,4928
2017-08-17T06:53:59.786Z,4996
2017-08-17T06:54:40.323Z,5096
2017-08-17T06:55:20.854Z,5208
2017-08-17T06:56:01.392Z,5308
2017-08-17T06:56:41.930Z,5332
2017-08-17T06:57:22.466Z,5336
2017-08-17T06:58:03.007Z,5332
2017-08-17T06:58:43.545Z,5328
2017-08-17T06:59:24.079Z,5304
2017-08-17T07:00:04.601Z,5264
2017-08-17T07:00:45.133Z,5312
2017-08-17T07:01:25.733Z,5292
2017-08-17T07:02:06.283Z,5324
2017-08-17T07:02:46.888Z,5392
2017-08-17T07:03:27.433Z,5488
2017-08-17T07:04:07.986Z,5564
2017-08-17T07:04:48.578Z,5620
2017-08-17T07:05:29.217Z,5716
2017-08-17T07:06:09.757Z,5708
2017-08-17T07:06:50.382Z,5672
2017-08-17T07:07:30.960Z,5696
2017-08-17T07:08:11.557Z,5656
2017-08-17T07:08:52.153Z,5616
2017-08-17T07:09:32.700Z,5588
2017-08-17T07:10:13.272Z,5540
2017-08-17T07:10:53.811Z,5480
2017-08-17T07:11:34.350Z,5400
2017-08-17T07:12:14.981Z,5300
2017-08-17T07:12:55.568Z,5184
2017-08-17T07:13:36.158Z,5032
2017-08-17T07:14:16.697Z,4928
2017-08-17T07:14:57.259Z,4892
2017-08-17T07:15:37.780Z,4908
2017-08-17T07:16:18.314Z,4928
2017-08-17T07:16:58.851Z,4968
2017-08-17T07:17:39.418Z,5000
2017-08-17T07:18:19.982Z,5012
2017-08-17T07:19:00.530Z,5016
2017-08-17T07:19:41.138Z,5060
2017-08-17T07:20:21.686Z,5108
2017-08-17T07:21:02.286Z,5168
2017-08-17T07:21:42.883Z,5272
2017-08-17T07:22:23.444Z,5392
2017-08-17T07:23:04.015Z,5584
2017-08-17T07:23:44.556Z,5756
2017-08-17T07:24:25.133Z,6016
2017-08-17T07:25:05.670Z,6256
2017-08-17T07:25:46.262Z,6260
2017-08-17T07:26:26.841Z,6456
2017-08-17T07:27:07.445Z,6172
2017-08-17T07:27:48.072Z,6256
2017-08-17T07:28:28.674Z,6444
2017-08-17T07:29:09.270Z,6584
2017-08-17T07:29:49.844Z,6720
2017-08-17T07:30:30.420Z,7432
2017-08-17T07:31:10.960Z,8260
2017-08-17T07:31:51.547Z,8488
2017-08-17T07:32:32.078Z,8024
2017-08-17T07:33:12.650Z,7608
2017-08-17T07:33:53.239Z,8300
2017-08-17T07:34:33.780Z,8284
2017-08-17T07:35:14.414Z,7928
2017-08-17T07:35:54.951Z,8432
2017-08-17T07:36:35.491Z,8116
2017-08-17T07:37:16.058Z,8176
2017-08-17T07:37:56.597Z,8244
2017-08-17T07:38:37.294Z,7692
2017-08-17T07:39:17.843Z,7800
2017-08-17T07:39:58.469Z,7812
2017-08-17T07:40:39.001Z,7512
2017-08-17T07:41:19.587Z,7136
2017-08-17T07:42:00.128Z,7996
2017-08-17T07:42:40.671Z,8440
2017-08-17T07:43:21.220Z,8652
2017-08-17T07:44:01.772Z,7044
2017-08-17T07:44:42.308Z,6464
2017-08-17T07:45:22.848Z,6368
2017-08-17T07:46:03.397Z,6456
2017-08-17T07:46:43.933Z,6436
2017-08-17T07:47:24.500Z,6328
2017-08-17T07:48:05.043Z,6316
2017-08-17T07:48:45.593Z,6324
2017-08-17T07:49:26.159Z,6380
2017-08-17T07:50:06.694Z,6484
2017-08-17T07:50:47.233Z,6684
2017-08-17T07:51:27.776Z,7032
2017-08-17T07:52:08.319Z,7600
2017-08-17T07:52:48.863Z,8772
2017-08-17T07:53:29.388Z,9080
2017-08-17T07:54:09.964Z,8480
2017-08-17T07:54:50.512Z,8344
2017-08-17T07:55:31.054Z,8644
2017-08-17T07:56:11.605Z,8444
2017-08-17T07:56:52.143Z,8252
2017-08-17T07:57:32.683Z,7604
2017-08-17T07:58:13.239Z,7424
2017-08-17T07:58:53.793Z,7560
2017-08-17T07:59:34.338Z,8088
2017-08-17T08:00:14.887Z,8064
2017-08-17T08:00:55.438Z,8432
2017-08-17T08:01:35.980Z,8652
2017-08-17T08:02:16.516Z,8784
2017-08-17T08:02:57.108Z,8176
2017-08-17T08:03:37.627Z,7768
2017-08-17T08:04:18.258Z,7304
2017-08-17T08:04:58.848Z,6624
2017-08-17T08:05:39.378Z,6172
2017-08-17T08:06:19.919Z,6056
2017-08-17T08:07:00.475Z,6036
2017-08-17T08:07:41.041Z,6060
2017-08-17T08:08:21.581Z,6120
2017-08-17T08:09:02.163Z,6156
2017-08-17T08:09:42.704Z,6204
2017-08-17T08:10:23.242Z,6228
2017-08-17T08:11:03.780Z,6260
2017-08-17T08:11:44.344Z,6280
2017-08-17T08:12:24.883Z,6360
2017-08-17T08:13:05.427Z,6360
2017-08-17T08:13:45.962Z,6340
2017-08-17T08:14:26.516Z,6324
2017-08-17T08:15:07.099Z,6304
2017-08-17T08:15:47.637Z,6328
2017-08-17T08:16:28.203Z,6404
2017-08-17T08:17:08.740Z,6468
2017-08-17T08:17:49.291Z,6516
2017-08-17T08:18:29.850Z,6528
2017-08-17T08:19:10.393Z,6624
2017-08-17T08:19:50.985Z,6660
2017-08-17T08:20:31.518Z,6632
2017-08-17T08:21:12.058Z,6544
2017-08-17T08:21:52.626Z,6532
2017-08-17T08:22:33.196Z,6588
2017-08-17T08:23:13.732Z,6580
2017-08-17T08:23:54.281Z,6564
2017-08-17T08:24:34.814Z,6712
2017-08-17T08:25:15.353Z,6892
2017-08-17T08:25:55.898Z,7128
2017-08-17T08:26:36.443Z,7384
2017-08-17T08:27:16.996Z,7644
2017-08-17T08:27:57.531Z,7856
2017-08-17T08:28:38.074Z,8036
2017-08-17T08:29:18.621Z,8148
2017-08-17T08:29:59.169Z,8260
2017-08-17T08:30:39.710Z,8388
2017-08-17T08:31:20.251Z,8452
2017-08-17T08:32:00.816Z,8448
2017-08-17T08:32:41.381Z,8528
2017-08-17T08:33:21.940Z,8620
2017-08-17T08:34:02.480Z,8600
2017-08-17T08:34:43.032Z,8540
2017-08-17T08:35:23.592Z,8356
2017-08-17T08:36:04.145Z,8120
2017-08-17T08:36:44.721Z,7760
2017-08-17T08:37:25.278Z,7396
2017-08-17T08:38:05.816Z,7036
2017-08-17T08:38:46.359Z,6636
2017-08-17T08:39:26.902Z,6296
2017-08-17T08:40:07.448Z,6084
2017-08-17T08:40:48.011Z,5900
2017-08-17T08:41:28.556Z,5824
2017-08-17T08:42:09.106Z,5844
2017-08-17T08:42:49.639Z,5904
2017-08-17T08:43:30.185Z,5948
2017-08-17T08:44:10.721Z,6020
2017-08-17T08:44:51.250Z,6092
2017-08-17T08:45:31.789Z,6152
2017-08-17T08:46:12.338Z,6248
2017-08-17T08:46:52.881Z,6380
2017-08-17T08:47:33.423Z,6500
2017-08-17T08:48:13.956Z,6628
2017-08-17T08:48:54.497Z,6700
2017-08-17T08:49:35.035Z,6744
2017-08-17T08:50:15.589Z,6856
2017-08-17T08:50:56.123Z,6908
2017-08-17T08:51:36.667Z,6920
2017-08-17T08:52:17.209Z,6856
2017-08-17T08:52:57.747Z,6832
2017-08-17T08:53:38.299Z,6708
2017-08-17T08:54:18.835Z,6660
2017-08-17T08:54:59.449Z,6564
2017-08-17T08:55:39.982Z,6464
2017-08-17T08:56:20.524Z,6388
2017-08-17T08:57:01.061Z,6344
2017-08-17T08:57:41.612Z,6428
2017-08-17T08:58:22.146Z,6520
2017-08-17T08:59:02.689Z,6636
2017-08-17T08:59:43.230Z,6704
2017-08-17T09:00:23.769Z,6820
2017-08-17T09:01:04.440Z,6928
2017-08-17T09:01:44.974Z,7276
2017-08-17T09:02:25.573Z,7276
2017-08-17T09:03:06.105Z,7348
2017-08-17T09:03:46.642Z,7452
2017-08-17T09:04:27.239Z,7492
2017-08-17T09:05:07.956Z,7692
2017-08-17T09:05:48.599Z,7740
2017-08-17T09:06:29.209Z,7744
2017-08-17T09:07:09.855Z,7712
2017-08-17T09:07:50.406Z,7676
2017-08-17T09:08:30.941Z,7528
2017-08-17T09:09:11.501Z,7380
2017-08-17T09:09:52.098Z,7472
2017-08-17T09:10:32.731Z,7656
2017-08-17T09:11:13.390Z,7880
2017-08-17T09:11:53.962Z,8180
2017-08-17T09:12:34.653Z,8664
2017-08-17T09:13:15.271Z,9116
2017-08-17T09:13:55.909Z,9872
2017-08-17T09:14:36.529Z,10556
2017-08-17T09:15:17.167Z,10900
2017-08-17T09:15:57.763Z,10384
2017-08-17T09:16:38.308Z,10504
2017-08-17T09:17:18.849Z,10012
2017-08-17T09:17:59.389Z,10192
2017-08-17T09:18:40.022Z,10520
2017-08-17T09:19:20.648Z,10976
2017-08-17T09:20:01.335Z,11140
2017-08-17T09:20:42.057Z,11036
2017-08-17T09:21:22.663Z,11356
2017-08-17T09:22:03.253Z,11980
2017-08-17T09:22:43.855Z,13052
2017-08-17T09:23:24.502Z,14288
2017-08-17T09:24:05.115Z,15292
2017-08-17T09:24:45.655Z,26528
2017-08-17T09:25:26.200Z,32288
2017-08-17T09:26:06.848Z,37664
2017-08-17T09:26:47.415Z,40608
2017-08-17T09:27:28.033Z,39968
2017-08-17T09:28:08.702Z,32640
2017-08-17T09:28:49.318Z,27520
2017-08-17T09:29:30.000Z,26400